sensor_id;sensor_type;location;lat;lon;timestamp;pressure;altitude;pressure_sealevel;temperature;humidity
71974;BME280;59840;52.122;5.404;2023-03-11T00:00:38;100831.72;;;-0.87;100.00
71974;BME280;59840;52.122;5.404;2023-03-11T00:03:07;100836.91;;;-0.87;100.00
71974;BME280;59840;52.122;5.404;2023-03-11T00:05:39;100836.09;;;-0.88;100.00
71974;BME280;59840;52.122;5.404;2023-03-11T00:08:07;100839.66;;;-0.89;100.00
71974;BME280;59840;52.122;5.404;2023-03-11T00:10:38;100840.31;;;-0.87;100.00
71974;BME280;59840;52.122;5.404;2023-03-11T00:13:07;100845.50;;;-0.87;100.00
71974;BME280;59840;52.122;5.404;2023-03-11T00:15:34;100845.50;;;-0.87;100.00
71974;BME280;59840;52.122;5.404;2023-03-11T00:18:02;100856.66;;;-0.86;100.00
71974;BME280;59840;52.122;5.404;2023-03-11T00:20:34;100852.28;;;-0.86;100.00
71974;BME280;59840;52.122;5.404;2023-03-11T00:23:03;100855.69;;;-0.85;100.00
71974;BME280;59840;52.122;5.404;2023-03-11T00:25:31;100852.28;;;-0.86;100.00
71974;BME280;59840;52.122;5.404;2023-03-11T00:27:58;100868.63;;;-0.85;100.00
71974;BME280;59840;52.122;5.404;2023-03-11T00:30:26;100856.66;;;-0.86;100.00
71974;BME280;59840;52.122;5.404;2023-03-11T00:32:55;100860.22;;;-0.87;100.00
71974;BME280;59840;52.122;5.404;2023-03-11T00:35:25;100869.13;;;-0.90;100.00
71974;BME280;59840;52.122;5.404;2023-03-11T00:37:54;100865.91;;;-0.92;100.00
71974;BME280;59840;52.122;5.404;2023-03-11T00:40:22;100873.69;;;-0.92;100.00
71974;BME280;59840;52.122;5.404;2023-03-11T00:42:49;100877.88;;;-0.91;100.00
71974;BME280;59840;52.122;5.404;2023-03-11T00:45:16;100888.06;;;-0.89;100.00
71974;BME280;59840;52.122;5.404;2023-03-11T00:47:43;100890.50;;;-0.88;100.00
71974;BME280;59840;52.122;5.404;2023-03-11T00:50:14;100892.13;;;-0.87;100.00
71974;BME280;59840;52.122;5.404;2023-03-11T00:52:44;100888.72;;;-0.87;100.00
71974;BME280;59840;52.122;5.404;2023-03-11T00:55:14;100896.31;;;-0.86;100.00
71974;BME280;59840;52.122;5.404;2023-03-11T00:57:42;100903.75;;;-0.83;100.00
71974;BME280;59840;52.122;5.404;2023-03-11T01:00:15;100904.72;;;-0.84;100.00
71974;BME280;59840;52.122;5.404;2023-03-11T01:02:42;100902.78;;;-0.82;100.00
71974;BME280;59840;52.122;5.404;2023-03-11T01:05:09;100905.19;;;-0.80;100.00
71974;BME280;59840;52.122;5.404;2023-03-11T01:07:36;100908.59;;;-0.80;100.00
71974;BME280;59840;52.122;5.404;2023-03-11T01:10:04;100911.03;;;-0.78;100.00
71974;BME280;59840;52.122;5.404;2023-03-11T01:12:31;100904.22;;;-0.79;100.00
71974;BME280;59840;52.122;5.404;2023-03-11T01:14:58;100906.81;;;-0.79;100.00
71974;BME280;59840;52.122;5.404;2023-03-11T01:17:24;100910.56;;;-0.82;100.00
71974;BME280;59840;52.122;5.404;2023-03-11T01:19:51;100914.75;;;-0.81;100.00
71974;BME280;59840;52.122;5.404;2023-03-11T01:22:17;100922.53;;;-0.81;100.00
71974;BME280;59840;52.122;5.404;2023-03-11T01:24:44;100918.16;;;-0.80;100.00
71974;BME280;59840;52.122;5.404;2023-03-11T01:27:10;100926.75;;;-0.80;100.00
71974;BME280;59840;52.122;5.404;2023-03-11T01:29:37;100921.38;;;-0.78;100.00
71974;BME280;59840;52.122;5.404;2023-03-11T01:32:04;100923.00;;;-0.77;100.00
71974;BME280;59840;52.122;5.404;2023-03-11T01:34:30;100935.78;;;-0.76;100.00
71974;BME280;59840;52.122;5.404;2023-03-11T01:36:58;100935.78;;;-0.76;100.00
71974;BME280;59840;52.122;5.404;2023-03-11T01:39:25;100938.38;;;-0.76;100.00
71974;BME280;59840;52.122;5.404;2023-03-11T01:41:52;100928.81;;;-0.75;100.00
71974;BME280;59840;52.122;5.404;2023-03-11T01:44:18;100938.38;;;-0.76;100.00
71974;BME280;59840;52.122;5.404;2023-03-11T01:49:19;100934.81;;;-0.75;100.00
71974;BME280;59840;52.122;5.404;2023-03-11T01:51:48;100929.63;;;-0.75;100.00
71974;BME280;59840;52.122;5.404;2023-03-11T01:54:26;100933.03;;;-0.74;100.00
71974;BME280;59840;52.122;5.404;2023-03-11T01:56:54;100923.66;;;-0.75;100.00
71974;BME280;59840;52.122;5.404;2023-03-11T01:59:28;100930.44;;;-0.74;100.00
71974;BME280;59840;52.122;5.404;2023-03-11T02:02:52;100928.66;;;-0.74;100.00
71974;BME280;59840;52.122;5.404;2023-03-11T02:05:24;100941.63;;;-0.74;100.00
71974;BME280;59840;52.122;5.404;2023-03-11T02:07:52;100939.03;;;-0.74;100.00
71974;BME280;59840;52.122;5.404;2023-03-11T02:10:20;100935.63;;;-0.74;100.00
71974;BME280;59840;52.122;5.404;2023-03-11T02:12:47;100937.41;;;-0.75;100.00
71974;BME280;59840;52.122;5.404;2023-03-11T02:15:16;100940.00;;;-0.75;100.00
71974;BME280;59840;52.122;5.404;2023-03-11T02:17:43;100942.59;;;-0.75;100.00
71974;BME280;59840;52.122;5.404;2023-03-11T02:20:15;100942.59;;;-0.75;100.00
71974;BME280;59840;52.122;5.404;2023-03-11T02:22:43;100946.16;;;-0.76;100.00
71974;BME280;59840;52.122;5.404;2023-03-11T02:28:17;100946.16;;;-0.76;100.00
71974;BME280;59840;52.122;5.404;2023-03-11T02:30:45;100948.09;;;-0.78;100.00
71974;BME280;59840;52.122;5.404;2023-03-11T02:33:13;100953.28;;;-0.78;100.00
71974;BME280;59840;52.122;5.404;2023-03-11T02:35:40;100956.69;;;-0.77;100.00
71974;BME280;59840;52.122;5.404;2023-03-11T02:38:07;100953.28;;;-0.78;100.00
71974;BME280;59840;52.122;5.404;2023-03-11T02:43:17;100958.78;;;-0.81;100.00
71974;BME280;59840;52.122;5.404;2023-03-11T02:45:45;100953.13;;;-0.84;100.00
71974;BME280;59840;52.122;5.404;2023-03-11T02:48:13;100945.88;;;-0.89;100.00
71974;BME280;59840;52.122;5.404;2023-03-11T02:50:42;100942.97;;;-0.94;100.00
71974;BME280;59840;52.122;5.404;2023-03-11T02:53:09;100937.63;;;-1.01;100.00
71974;BME280;59840;52.122;5.404;2023-03-11T02:55:36;100953.84;;;-1.07;100.00
71974;BME280;59840;52.122;5.404;2023-03-11T02:58:03;100952.09;;;-1.14;100.00
71974;BME280;59840;52.122;5.404;2023-03-11T03:00:29;100957.09;;;-1.21;100.00
71974;BME280;59840;52.122;5.404;2023-03-11T03:02:56;100958.56;;;-1.26;100.00
71974;BME280;59840;52.122;5.404;2023-03-11T03:05:23;100963.59;;;-1.33;100.00
71974;BME280;59840;52.122;5.404;2023-03-11T03:07:50;100965.03;;;-1.39;100.00
71974;BME280;59840;52.122;5.404;2023-03-11T03:10:17;100961.34;;;-1.44;100.00
71974;BME280;59840;52.122;5.404;2023-03-11T03:12:44;100962.66;;;-1.48;100.00
71974;BME280;59840;52.122;5.404;2023-03-11T03:15:11;100973.47;;;-1.53;100.00
71974;BME280;59840;52.122;5.404;2023-03-11T03:17:38;100968.63;;;-1.56;100.00
71974;BME280;59840;52.122;5.404;2023-03-11T03:20:05;100972.19;;;-1.57;100.00
71974;BME280;59840;52.122;5.404;2023-03-11T03:22:37;100980.44;;;-1.61;100.00
71974;BME280;59840;52.122;5.404;2023-03-11T03:25:04;100985.09;;;-1.65;100.00
71974;BME280;59840;52.122;5.404;2023-03-11T03:27:33;100986.25;;;-1.67;100.00
71974;BME280;59840;52.122;5.404;2023-03-11T03:29:59;100981.53;;;-1.72;100.00
71974;BME280;59840;52.122;5.404;2023-03-11T03:32:26;100985.91;;;-1.73;100.00
71974;BME280;59840;52.122;5.404;2023-03-11T03:34:53;100992.06;;;-1.74;100.00
71974;BME280;59840;52.122;5.404;2023-03-11T03:37:25;100993.19;;;-1.76;100.00
71974;BME280;59840;52.122;5.404;2023-03-11T03:39:53;100993.19;;;-1.76;100.00
71974;BME280;59840;52.122;5.404;2023-03-11T03:42:20;101002.09;;;-1.79;100.00
71974;BME280;59840;52.122;5.404;2023-03-11T03:44:47;101012.28;;;-1.77;100.00
71974;BME280;59840;52.122;5.404;2023-03-11T03:47:13;101007.09;;;-1.77;100.00
71974;BME280;59840;52.122;5.404;2023-03-11T03:49:40;101009.69;;;-1.77;100.00
71974;BME280;59840;52.122;5.404;2023-03-11T03:52:07;101019.72;;;-1.74;100.00
71974;BME280;59840;52.122;5.404;2023-03-11T03:54:34;101013.53;;;-1.73;100.00
71974;BME280;59840;52.122;5.404;2023-03-11T03:57:00;101022.94;;;-1.72;100.00
71974;BME280;59840;52.122;5.404;2023-03-11T03:59:27;101021.97;;;-1.71;100.00
71974;BME280;59840;52.122;5.404;2023-03-11T04:01:54;101027.13;;;-1.71;100.00
71974;BME280;59840;52.122;5.404;2023-03-11T04:04:21;101028.75;;;-1.70;100.00
71974;BME280;59840;52.122;5.404;2023-03-11T04:06:47;101031.34;;;-1.70;100.00
71974;BME280;59840;52.122;5.404;2023-03-11T04:09:14;101040.06;;;-1.71;100.00
71974;BME280;59840;52.122;5.404;2023-03-11T04:11:40;101040.22;;;-1.73;100.00
71974;BME280;59840;52.122;5.404;2023-03-11T04:14:07;101037.81;;;-1.74;100.00
71974;BME280;59840;52.122;5.404;2023-03-11T04:16:33;101033.78;;;-1.77;100.00
71974;BME280;59840;52.122;5.404;2023-03-11T04:19:00;101036.19;;;-1.83;100.00
71974;BME280;59840;52.122;5.404;2023-03-11T04:21:27;101043.59;;;-1.88;100.00
71974;BME280;59840;52.122;5.404;2023-03-11T04:23:53;101047.63;;;-1.94;100.00
71974;BME280;59840;52.122;5.404;2023-03-11T04:26:20;101046.63;;;-2.01;100.00
71974;BME280;59840;52.122;5.404;2023-03-11T04:28:46;101050.50;;;-2.05;100.00
71974;BME280;59840;52.122;5.404;2023-03-11T04:31:13;101044.19;;;-2.11;100.00
71974;BME280;59840;52.122;5.404;2023-03-11T04:33:39;101041.13;;;-2.14;100.00
71974;BME280;59840;52.122;5.404;2023-03-11T04:36:07;101044.16;;;-2.19;100.00
71974;BME280;59840;52.122;5.404;2023-03-11T04:38:34;101046.25;;;-2.22;100.00
71974;BME280;59840;52.122;5.404;2023-03-11T04:41:05;101051.88;;;-2.27;100.00
71974;BME280;59840;52.122;5.404;2023-03-11T04:43:32;101054.75;;;-2.30;100.00
71974;BME280;59840;52.122;5.404;2023-03-11T04:45:59;101058.63;;;-2.34;100.00
71974;BME280;59840;52.122;5.404;2023-03-11T04:48:25;101060.53;;;-2.36;100.00
71974;BME280;59840;52.122;5.404;2023-03-11T04:50:53;101057.31;;;-2.38;100.00
71974;BME280;59840;52.122;5.404;2023-03-11T04:53:21;101067.94;;;-2.41;100.00
71974;BME280;59840;52.122;5.404;2023-03-11T04:55:47;101066.66;;;-2.45;100.00
71974;BME280;59840;52.122;5.404;2023-03-11T04:58:14;101068.75;;;-2.49;100.00
71974;BME280;59840;52.122;5.404;2023-03-11T05:00:40;101073.41;;;-2.52;100.00
71974;BME280;59840;52.122;5.404;2023-03-11T05:03:07;101074.66;;;-2.56;100.00
71974;BME280;59840;52.122;5.404;2023-03-11T05:05:33;101078.38;;;-2.59;100.00
71974;BME280;59840;52.122;5.404;2023-03-11T05:08:00;101074.47;;;-2.63;100.00
71974;BME280;59840;52.122;5.404;2023-03-11T05:10:27;101078.16;;;-2.65;100.00
71974;BME280;59840;52.122;5.404;2023-03-11T05:12:57;101069.25;;;-2.71;100.00
71974;BME280;59840;52.122;5.404;2023-03-11T05:15:23;101066.50;;;-2.70;100.00
71974;BME280;59840;52.122;5.404;2023-03-11T05:17:50;101067.63;;;-2.72;100.00
71974;BME280;59840;52.122;5.404;2023-03-11T05:20:17;101065.66;;;-2.78;100.00
71974;BME280;59840;52.122;5.404;2023-03-11T05:22:43;101066.13;;;-2.83;100.00
71974;BME280;59840;52.122;5.404;2023-03-11T05:25:10;101073.50;;;-2.88;100.00
71974;BME280;59840;52.122;5.404;2023-03-11T05:27:36;101088.34;;;-2.90;100.00
71974;BME280;59840;52.122;5.404;2023-03-11T05:30:03;101092.03;;;-2.92;100.00
71974;BME280;59840;52.122;5.404;2023-03-11T05:32:30;101089.06;;;-2.97;100.00
71974;BME280;59840;52.122;5.404;2023-03-11T05:34:57;101093.44;;;-2.98;100.00
71974;BME280;59840;52.122;5.404;2023-03-11T05:37:23;101096.31;;;-3.01;100.00
71974;BME280;59840;52.122;5.404;2023-03-11T05:39:50;101094.84;;;-3.04;100.00
71974;BME280;59840;52.122;5.404;2023-03-11T05:42:17;101100.00;;;-3.04;100.00
71974;BME280;59840;52.122;5.404;2023-03-11T05:44:46;101100.44;;;-3.08;100.00
71974;BME280;59840;52.122;5.404;2023-03-11T05:47:13;101109.81;;;-3.07;100.00
71974;BME280;59840;52.122;5.404;2023-03-11T05:49:41;101109.28;;;-3.11;100.00
71974;BME280;59840;52.122;5.404;2023-03-11T05:52:08;101113.00;;;-3.13;100.00
71974;BME280;59840;52.122;5.404;2023-03-11T05:54:34;101115.59;;;-3.13;100.00
71974;BME280;59840;52.122;5.404;2023-03-11T05:57:01;101115.06;;;-3.17;100.00
71974;BME280;59840;52.122;5.404;2023-03-11T05:59:27;101123.75;;;-3.18;100.00
71974;BME280;59840;52.122;5.404;2023-03-11T06:01:54;101118.47;;;-3.16;100.00
71974;BME280;59840;52.122;5.404;2023-03-11T06:04:21;101122.97;;;-3.18;100.00
71974;BME280;59840;52.122;5.404;2023-03-11T06:06:47;101126.34;;;-3.18;100.00
71974;BME280;59840;52.122;5.404;2023-03-11T06:09:14;101122.97;;;-3.18;100.00
71974;BME280;59840;52.122;5.404;2023-03-11T06:11:41;101131.34;;;-3.16;100.00
71974;BME280;59840;52.122;5.404;2023-03-11T06:14:12;101137.91;;;-3.04;100.00
71974;BME280;59840;52.122;5.404;2023-03-11T06:16:40;101137.69;;;-2.93;100.00
71974;BME280;59840;52.122;5.404;2023-03-11T06:19:07;101139.09;;;-2.81;100.00
71974;BME280;59840;52.122;5.404;2023-03-11T06:21:34;101140.16;;;-2.65;100.00
71974;BME280;59840;52.122;5.404;2023-03-11T06:24:00;101138.16;;;-2.72;100.00
71974;BME280;59840;52.122;5.404;2023-03-11T06:26:27;101149.66;;;-2.66;100.00
71974;BME280;59840;52.122;5.404;2023-03-11T06:28:54;101143.38;;;-2.38;100.00
71974;BME280;59840;52.122;5.404;2023-03-11T06:31:23;101147.91;;;-2.06;100.00
71974;BME280;59840;52.122;5.404;2023-03-11T06:33:51;101153.03;;;-1.88;100.00
71974;BME280;59840;52.122;5.404;2023-03-11T06:36:19;101160.28;;;-1.49;100.00
71974;BME280;59840;52.122;5.404;2023-03-11T06:38:45;101166.66;;;-1.19;100.00
71974;BME280;59840;52.122;5.404;2023-03-11T06:41:13;101162.63;;;-0.89;100.00
71974;BME280;59840;52.122;5.404;2023-03-11T06:43:40;101167.16;;;-1.16;100.00
71974;BME280;59840;52.122;5.404;2023-03-11T06:46:09;101168.53;;;-1.38;100.00
71974;BME280;59840;52.122;5.404;2023-03-11T06:48:36;101165.31;;;-1.40;100.00
71974;BME280;59840;52.122;5.404;2023-03-11T06:51:03;101169.81;;;-1.50;100.00
71974;BME280;59840;52.122;5.404;2023-03-11T06:53:29;101164.47;;;-1.56;100.00
71974;BME280;59840;52.122;5.404;2023-03-11T06:56:08;101165.28;;;-1.56;100.00
71974;BME280;59840;52.122;5.404;2023-03-11T06:58:36;101167.88;;;-1.48;100.00
71974;BME280;59840;52.122;5.404;2023-03-11T07:01:06;101174.88;;;-1.40;100.00
71974;BME280;59840;52.122;5.404;2023-03-11T07:03:34;101177.78;;;-1.35;100.00
71974;BME280;59840;52.122;5.404;2023-03-11T07:06:00;101182.31;;;-1.29;100.00
71974;BME280;59840;52.122;5.404;2023-03-11T07:08:27;101186.38;;;-1.26;100.00
71974;BME280;59840;52.122;5.404;2023-03-11T07:11:06;101190.91;;;-1.20;100.00
71974;BME280;59840;52.122;5.404;2023-03-11T07:13:34;101201.63;;;-1.15;100.00
71974;BME280;59840;52.122;5.404;2023-03-11T07:18:28;101205.84;;;-0.98;100.00
71974;BME280;59840;52.122;5.404;2023-03-11T07:20:54;101208.44;;;-0.90;100.00
71974;BME280;59840;52.122;5.404;2023-03-11T07:23:22;101210.56;;;-0.85;100.00
71974;BME280;59840;52.122;5.404;2023-03-11T07:25:49;101205.56;;;-0.79;100.00
71974;BME280;59840;52.122;5.404;2023-03-11T07:28:17;101207.81;;;-0.68;100.00
71974;BME280;59840;52.122;5.404;2023-03-11T07:30:44;101209.91;;;-0.63;100.00
71974;BME280;59840;52.122;5.404;2023-03-11T07:33:11;101216.88;;;-0.55;100.00
71974;BME280;59840;52.122;5.404;2023-03-11T07:35:39;101225.00;;;-0.50;100.00
71974;BME280;59840;52.122;5.404;2023-03-11T07:38:05;101227.09;;;-0.46;100.00
71974;BME280;59840;52.122;5.404;2023-03-11T07:40:32;101224.84;;;-0.41;100.00
71974;BME280;59840;52.122;5.404;2023-03-11T07:42:59;101227.88;;;-0.29;100.00
71974;BME280;59840;52.122;5.404;2023-03-11T07:45:25;101222.84;;;-0.22;100.00
71974;BME280;59840;52.122;5.404;2023-03-11T07:47:52;101216.03;;;-0.15;100.00
71974;BME280;59840;52.122;5.404;2023-03-11T07:50:18;101217.50;;;-0.05;100.00
71974;BME280;59840;52.122;5.404;2023-03-11T07:52:47;101225.22;;;0.04;100.00
71974;BME280;59840;52.122;5.404;2023-03-11T07:55:14;101226.50;;;0.16;100.00
71974;BME280;59840;52.122;5.404;2023-03-11T07:57:40;101232.31;;;0.26;100.00
71974;BME280;59840;52.122;5.404;2023-03-11T08:00:09;101236.31;;;0.37;100.00
71974;BME280;59840;52.122;5.404;2023-03-11T08:02:35;101235.16;;;0.47;100.00
71974;BME280;59840;52.122;5.404;2023-03-11T08:05:02;101242.13;;;0.55;100.00
71974;BME280;59840;52.122;5.404;2023-03-11T08:07:30;101245.81;;;0.60;100.00
71974;BME280;59840;52.122;5.404;2023-03-11T08:09:57;101251.00;;;0.69;100.00
71974;BME280;59840;52.122;5.404;2023-03-11T08:12:24;101254.16;;;0.79;100.00
71974;BME280;59840;52.122;5.404;2023-03-11T08:14:50;101252.34;;;0.87;100.00
71974;BME280;59840;52.122;5.404;2023-03-11T08:17:17;101250.06;;;0.92;100.00
71974;BME280;59840;52.122;5.404;2023-03-11T08:19:43;101251.81;;;1.00;100.00
71974;BME280;59840;52.122;5.404;2023-03-11T08:22:10;101249.47;;;1.05;100.00
71974;BME280;59840;52.122;5.404;2023-03-11T08:24:36;101253.66;;;1.14;100.00
71974;BME280;59840;52.122;5.404;2023-03-11T08:27:03;101249.38;;;1.21;100.00
71974;BME280;59840;52.122;5.404;2023-03-11T08:29:29;101261.69;;;1.27;100.00
71974;BME280;59840;52.122;5.404;2023-03-11T08:31:56;101266.84;;;1.36;100.00
71974;BME280;59840;52.122;5.404;2023-03-11T10:26:10;101318.84;;;4.96;100.00
71974;BME280;59840;52.122;5.404;2023-03-11T10:28:45;101324.97;;;5.23;100.00
71974;BME280;59840;52.122;5.404;2023-03-11T10:34:31;101329.28;;;5.57;100.00
71974;BME280;59840;52.122;5.404;2023-03-11T10:40:31;101323.88;;;5.65;100.00
71974;BME280;59840;52.122;5.404;2023-03-11T10:43:02;101320.47;;;5.71;100.00
71974;BME280;59840;52.122;5.404;2023-03-11T10:45:35;101314.66;;;5.89;100.00
71974;BME280;59840;52.122;5.404;2023-03-11T10:48:08;101321.09;;;5.93;100.00
71974;BME280;59840;52.122;5.404;2023-03-11T10:50:36;101310.81;;;5.98;100.00
71974;BME280;59840;52.122;5.404;2023-03-11T10:53:14;101320.09;;;6.07;100.00
71974;BME280;59840;52.122;5.404;2023-03-11T10:55:50;101317.47;;;6.14;100.00
71974;BME280;59840;52.122;5.404;2023-03-11T10:58:23;101317.88;;;6.17;100.00
71974;BME280;59840;52.122;5.404;2023-03-11T11:01:14;101313.19;;;6.39;100.00
71974;BME280;59840;52.122;5.404;2023-03-11T11:03:43;101317.84;;;6.37;100.00
71974;BME280;59840;52.122;5.404;2023-03-11T11:06:24;101317.22;;;6.35;100.00
71974;BME280;59840;52.122;5.404;2023-03-11T11:09:14;101317.81;;;6.44;100.00
71974;BME280;59840;52.122;5.404;2023-03-11T11:11:43;101316.00;;;6.51;100.00
71974;BME280;59840;52.122;5.404;2023-03-11T11:14:25;101334.75;;;6.48;98.43
71974;BME280;59840;52.122;5.404;2023-03-11T11:16:51;101330.75;;;6.32;97.01
71974;BME280;59840;52.122;5.404;2023-03-11T11:19:18;101327.53;;;5.97;93.81
71974;BME280;59840;52.122;5.404;2023-03-11T11:21:49;101323.28;;;5.76;89.25
71974;BME280;59840;52.122;5.404;2023-03-11T11:24:25;101323.09;;;5.84;94.90
71974;BME280;59840;52.122;5.404;2023-03-11T11:27:26;101326.13;;;6.14;97.24
71974;BME280;59840;52.122;5.404;2023-03-11T11:32:35;101326.69;;;6.36;92.32
71974;BME280;59840;52.122;5.404;2023-03-11T11:35:05;101327.50;;;6.50;91.76
71974;BME280;59840;52.122;5.404;2023-03-11T11:37:35;101329.88;;;6.64;87.90
71974;BME280;59840;52.122;5.404;2023-03-11T11:42:49;101322.38;;;6.75;89.16
71974;BME280;59840;52.122;5.404;2023-03-11T11:48:18;101319.19;;;6.59;88.97
71974;BME280;59840;52.122;5.404;2023-03-11T11:50:58;101324.72;;;6.12;87.49
71974;BME280;59840;52.122;5.404;2023-03-11T11:53:45;101325.13;;;6.02;88.30
71974;BME280;59840;52.122;5.404;2023-03-11T11:56:15;101327.34;;;6.12;84.65
71974;BME280;59840;52.122;5.404;2023-03-11T11:58:41;101325.94;;;6.16;82.31
71974;BME280;59840;52.122;5.404;2023-03-11T12:01:18;101325.94;;;6.02;82.07
71974;BME280;59840;52.122;5.404;2023-03-11T12:05:09;101328.34;;;6.11;83.17
71974;BME280;59840;52.122;5.404;2023-03-11T12:15:19;101324.13;;;5.96;78.60
71974;BME280;59840;52.122;5.404;2023-03-11T12:17:48;101331.53;;;5.80;76.95
71974;BME280;59840;52.122;5.404;2023-03-11T12:20:24;101326.13;;;6.08;77.35
71974;BME280;59840;52.122;5.404;2023-03-11T12:26:00;101308.53;;;6.48;79.90
71974;BME280;59840;52.122;5.404;2023-03-11T12:28:47;101311.75;;;6.50;79.49
71974;BME280;59840;52.122;5.404;2023-03-11T12:31:17;101311.56;;;6.51;76.25
71974;BME280;59840;52.122;5.404;2023-03-11T12:36:40;101308.94;;;6.51;79.38
71974;BME280;59840;52.122;5.404;2023-03-11T12:39:22;101300.47;;;6.49;77.37
71974;BME280;59840;52.122;5.404;2023-03-11T12:42:22;101303.28;;;6.54;77.46
71974;BME280;59840;52.122;5.404;2023-03-11T12:44:50;101301.22;;;6.69;72.68
71974;BME280;59840;52.122;5.404;2023-03-11T12:47:19;101305.44;;;6.70;73.73
71974;BME280;59840;52.122;5.404;2023-03-11T12:49:54;101298.56;;;6.76;74.06
71974;BME280;59840;52.122;5.404;2023-03-11T12:52:24;101298.38;;;6.71;71.35
71974;BME280;59840;52.122;5.404;2023-03-11T12:57:30;101296.03;;;6.56;71.97
71974;BME280;59840;52.122;5.404;2023-03-11T13:00:39;101303.81;;;6.76;73.75
71974;BME280;59840;52.122;5.404;2023-03-11T13:03:40;101307.03;;;6.85;73.80
71974;BME280;59840;52.122;5.404;2023-03-11T13:06:24;101312.91;;;6.73;70.72
71974;BME280;59840;52.122;5.404;2023-03-11T13:08:56;101310.47;;;6.79;67.52
71974;BME280;59840;52.122;5.404;2023-03-11T13:14:32;101306.03;;;6.72;70.67
71974;BME280;59840;52.122;5.404;2023-03-11T13:17:25;101299.16;;;6.85;70.81
71974;BME280;59840;52.122;5.404;2023-03-11T13:19:54;101302.50;;;6.98;66.88
71974;BME280;59840;52.122;5.404;2023-03-11T13:25:26;101299.66;;;7.00;66.78
71974;BME280;59840;52.122;5.404;2023-03-11T13:28:00;101297.78;;;7.14;65.19
71974;BME280;59840;52.122;5.404;2023-03-11T13:30:33;101297.78;;;7.14;63.61
71974;BME280;59840;52.122;5.404;2023-03-11T13:36:03;101294.97;;;7.15;61.73
71974;BME280;59840;52.122;5.404;2023-03-11T13:41:42;101297.16;;;7.18;60.44
71974;BME280;59840;52.122;5.404;2023-03-11T13:44:24;101293.75;;;7.18;60.83
71974;BME280;59840;52.122;5.404;2023-03-11T13:46:58;101295.75;;;7.22;61.34
71974;BME280;59840;52.122;5.404;2023-03-11T13:49:41;101296.44;;;7.36;61.73
71974;BME280;59840;52.122;5.404;2023-03-11T13:52:13;101299.63;;;7.45;60.48
71974;BME280;59840;52.122;5.404;2023-03-11T13:54:45;101298.88;;;7.37;58.94
71974;BME280;59840;52.122;5.404;2023-03-11T13:57:33;101299.69;;;7.31;61.80
71974;BME280;59840;52.122;5.404;2023-03-11T14:03:02;101312.59;;;6.95;60.11
71974;BME280;59840;52.122;5.404;2023-03-11T14:05:31;101302.13;;;6.95;59.17
71974;BME280;59840;52.122;5.404;2023-03-11T14:10:37;101311.25;;;6.86;57.96
71974;BME280;59840;52.122;5.404;2023-03-11T14:13:12;101317.53;;;6.78;58.96
71974;BME280;59840;52.122;5.404;2023-03-11T14:20:51;101319.13;;;6.86;57.94
71974;BME280;59840;52.122;5.404;2023-03-11T14:23:19;101318.34;;;6.79;57.15
71974;BME280;59840;52.122;5.404;2023-03-11T14:25:46;101320.53;;;6.88;57.21
71974;BME280;59840;52.122;5.404;2023-03-11T14:28:18;101328.94;;;6.97;57.17
71974;BME280;59840;52.122;5.404;2023-03-11T14:30:55;101324.91;;;7.01;56.50
71974;BME280;59840;52.122;5.404;2023-03-11T14:33:24;101324.09;;;6.94;55.42
71974;BME280;59840;52.122;5.404;2023-03-11T14:36:11;101335.88;;;6.85;56.61
71974;BME280;59840;52.122;5.404;2023-03-11T14:38:42;101332.66;;;6.83;55.95
71974;BME280;59840;52.122;5.404;2023-03-11T14:41:12;101338.31;;;6.80;56.84
71974;BME280;59840;52.122;5.404;2023-03-11T14:43:44;101332.06;;;6.74;56.20
71974;BME280;59840;52.122;5.404;2023-03-11T14:46:18;101339.75;;;6.69;56.98
71974;BME280;59840;52.122;5.404;2023-03-11T14:48:46;101335.28;;;6.83;57.22
71974;BME280;59840;52.122;5.404;2023-03-11T14:51:26;101329.84;;;6.78;58.30
71974;BME280;59840;52.122;5.404;2023-03-11T14:54:19;101331.47;;;6.65;58.70
71974;BME280;59840;52.122;5.404;2023-03-11T14:57:03;101323.75;;;6.90;59.11
71974;BME280;59840;52.122;5.404;2023-03-11T14:59:32;101321.81;;;7.11;57.27
71974;BME280;59840;52.122;5.404;2023-03-11T15:02:21;101320.97;;;7.23;56.76
71974;BME280;59840;52.122;5.404;2023-03-11T15:04:54;101322.19;;;7.21;56.96
71974;BME280;59840;52.122;5.404;2023-03-11T15:07:24;101325.66;;;7.15;55.38
71974;BME280;59840;52.122;5.404;2023-03-11T15:09:51;101334.75;;;7.12;56.11
71974;BME280;59840;52.122;5.404;2023-03-11T15:12:32;101333.94;;;7.12;55.68
71974;BME280;59840;52.122;5.404;2023-03-11T15:14:59;101336.59;;;7.05;54.86
71974;BME280;59840;52.122;5.404;2023-03-11T15:17:26;101330.56;;;6.98;55.62
71974;BME280;59840;52.122;5.404;2023-03-11T15:20:41;101339.50;;;6.90;56.96
71974;BME280;59840;52.122;5.404;2023-03-11T15:23:19;101326.50;;;7.02;56.70
71974;BME280;59840;52.122;5.404;2023-03-11T15:25:47;101324.88;;;7.07;55.12
71974;BME280;59840;52.122;5.404;2023-03-11T15:28:27;101323.84;;;7.09;55.63
71974;BME280;59840;52.122;5.404;2023-03-11T15:31:25;101324.91;;;7.01;55.51
71974;BME280;59840;52.122;5.404;2023-03-11T15:39:20;101323.06;;;6.57;55.55
71974;BME280;59840;52.122;5.404;2023-03-11T15:47:34;101324.31;;;6.21;53.81
71974;BME280;59840;52.122;5.404;2023-03-11T15:50:23;101315.66;;;6.14;53.42
71974;BME280;59840;52.122;5.404;2023-03-11T15:52:56;101317.88;;;6.11;54.31
71974;BME280;59840;52.122;5.404;2023-03-11T15:55:25;101320.69;;;6.16;54.48
71974;BME280;59840;52.122;5.404;2023-03-11T15:58:01;101315.47;;;6.16;54.25
71974;BME280;59840;52.122;5.404;2023-03-11T16:00:28;101328.34;;;6.17;55.05
71974;BME280;59840;52.122;5.404;2023-03-11T16:02:55;101326.34;;;6.06;52.87
71974;BME280;59840;52.122;5.404;2023-03-11T16:05:23;101325.53;;;5.92;51.14
71974;BME280;59840;52.122;5.404;2023-03-11T16:07:50;101320.28;;;5.86;51.89
71974;BME280;59840;52.122;5.404;2023-03-11T16:10:19;101316.44;;;5.88;53.57
71974;BME280;59840;52.122;5.404;2023-03-11T16:12:46;101320.69;;;5.89;51.87